Time;durP1;ratioP1;P1;durP2;ratioP2;P2;SDS_P1;SDS_P2;PMS_P1;PMS_P2;Temp;Humidity;BMP_temperature;BMP_pressure;BME280_temperature;BME280_humidity;BME280_pressure;Samples;Min_cycle;Max_cycle;Signal;HPM_P1;HPM_P2
2022/10/09 00:01:56;;;;;;;4.43;1.60;;;;;;;6.58;100.00;101644.22;5179673;28;20025;-72
2022/10/09 00:04:26;;;;;;;4.68;1.33;;;;;;;6.57;100.00;101640.75;5178780;28;20033;-72
2022/10/09 00:06:56;;;;;;;5.10;1.35;;;;;;;6.58;100.00;101647.66;5179341;28;20036;-73
2022/10/09 00:09:26;;;;;;;6.47;1.40;;;;;;;6.70;100.00;101637.25;5178570;28;20145;-72
2022/10/09 00:11:57;;;;;;;3.80;1.42;;;;;;;6.61;100.00;101639.88;5194219;28;20026;-72
2022/10/09 00:14:27;;;;;;;3.22;1.13;;;;;;;6.72;100.00;101651.09;5179001;28;20057;-72
2022/10/09 00:16:57;;;;;;;8.40;1.98;;;;;;;6.66;100.00;101643.34;5178811;28;20034;-72
2022/10/09 00:19:28;;;;;;;8.10;1.77;;;;;;;6.64;100.00;101644.19;5179365;28;20037;-72
2022/10/09 00:21:58;;;;;;;4.80;1.25;;;;;;;6.63;100.00;101647.66;5179377;28;20025;-72
2022/10/09 00:24:28;;;;;;;3.10;1.10;;;;;;;6.71;100.00;101651.09;5179692;28;20376;-72
2022/10/09 00:26:58;;;;;;;4.63;1.40;;;;;;;6.56;100.00;101657.19;5178572;28;20044;-72
2022/10/09 00:29:29;;;;;;;6.18;1.30;;;;;;;6.66;100.00;101655.44;5178117;28;20452;-72
2022/10/09 00:31:59;;;;;;;5.47;1.38;;;;;;;6.63;100.00;101651.13;5179399;28;20045;-73
2022/10/09 00:34:32;;;;;;;6.47;1.55;;;;;;;6.53;100.00;101659.81;5179317;28;20038;-72
2022/10/09 00:37:03;;;;;;;6.35;1.40;;;;;;;6.56;100.00;101656.34;5173142;28;20141;-72
2022/10/09 00:39:33;;;;;;;4.05;1.17;;;;;;;6.52;100.00;101657.22;5182638;28;20113;-72
2022/10/09 00:42:04;;;;;;;4.68;1.20;;;;;;;6.58;100.00;101652.03;5178910;28;20037;-72
2022/10/09 00:44:53;;;;;;;6.80;1.50;;;;;;;6.51;100.00;101652.88;5179513;28;20033;-73
2022/10/09 00:47:39;;;;;;;3.25;1.25;;;;;;;6.52;100.00;101654.59;5176229;28;20126;-72
2022/10/09 00:50:18;;;;;;;;;;;;;;;6.47;100.00;101661.56;5304334;22;20068;-78
2022/10/09 00:52:53;;;;;;;5.68;1.23;;;;;;;6.44;100.00;101659.81;5235396;28;19924;-78
2022/10/09 00:55:25;;;;;;;7.13;1.30;;;;;;;6.48;100.00;101671.94;5241023;28;20039;-78
2022/10/09 00:57:58;;;;;;;5.28;1.25;;;;;;;6.45;100.00;101669.31;5239760;28;20504;-78
2022/10/09 01:00:29;;;;;;;5.82;1.27;;;;;;;6.43;100.00;101662.44;5221008;28;20118;-78
2022/10/09 01:03:00;;;;;;;4.80;1.30;;;;;;;6.48;100.00;101658.09;5220738;28;20053;-78
2022/10/09 01:05:49;;;;;;;7.72;1.13;;;;;;;6.44;100.00;101661.56;5219667;28;20032;-78
2022/10/09 01:08:47;;;;;;;4.82;0.85;;;;;;;6.53;100.00;101671.91;5217697;28;20210;-77
2022/10/09 01:11:37;;;;;;;6.32;1.33;;;;;;;6.49;100.00;101667.59;5218373;28;20029;-78
2022/10/09 01:14:21;;;;;;;6.28;1.23;;;;;;;6.55;100.00;101664.97;5217381;28;20482;-78
2022/10/09 01:17:13;;;;;;;6.22;1.40;;;;;;;6.37;100.00;101675.41;5216286;28;20036;-78
2022/10/09 01:20:05;;;;;;;6.65;1.20;;;;;;;6.44;100.00;101669.34;5218262;28;20382;-79
2022/10/09 01:22:49;;;;;;;3.75;1.05;;;;;;;6.28;100.00;101665.03;5220052;28;20228;-77
2022/10/09 01:25:33;;;;;;;5.05;1.10;;;;;;;6.23;100.00;101661.59;5216468;28;20143;-78
2022/10/09 01:28:06;;;;;;;3.70;1.10;;;;;;;6.19;100.00;101665.91;5219598;28;20029;-78
2022/10/09 01:30:37;;;;;;;5.32;1.35;;;;;;;6.26;100.00;101661.59;5220118;28;20551;-78
2022/10/09 01:33:09;;;;;;;6.00;1.25;;;;;;;6.19;100.00;101665.03;5220073;28;20028;-78
2022/10/09 01:35:41;;;;;;;3.15;0.90;;;;;;;6.20;100.00;101662.44;5220023;28;20029;-78
2022/10/09 01:38:11;;;;;;;5.32;1.30;;;;;;;6.17;100.00;101661.56;5204239;28;20098;-78
2022/10/09 01:40:42;;;;;;;4.10;1.10;;;;;;;6.11;100.00;101662.44;5219064;28;20431;-78
2022/10/09 01:43:13;;;;;;;2.53;0.98;;;;;;;5.97;100.00;101663.31;5217551;28;20029;-78
2022/10/09 01:45:45;;;;;;;3.85;1.20;;;;;;;5.92;100.00;101660.72;5218379;28;20098;-78
2022/10/09 01:48:23;;;;;;;4.68;1.10;;;;;;;5.85;100.00;101663.28;5218872;28;20033;-78
2022/10/09 01:51:02;;;;;;;2.88;0.88;;;;;;;5.70;100.00;101673.59;5226844;28;20119;-78
2022/10/09 01:53:35;;;;;;;3.80;1.10;;;;;;;5.70;100.00;101665.84;5203094;28;20131;-78
2022/10/09 01:56:17;;;;;;;3.78;0.88;;;;;;;5.70;100.00;101668.44;5219172;28;20670;-78
2022/10/09 01:58:55;;;;;;;5.55;0.93;;;;;;;5.70;100.00;101663.25;5202680;28;20445;-77
2022/10/09 02:01:36;;;;;;;4.55;1.25;;;;;;;5.69;100.00;101669.28;5219016;28;20036;-77
2022/10/09 02:04:11;;;;;;;4.90;1.38;;;;;;;5.72;100.00;101661.53;5219431;28;20017;-78
2022/10/09 02:06:44;;;;;;;3.25;1.00;;;;;;;5.81;100.00;101661.56;5220870;28;20052;-78
2022/10/09 02:09:16;;;;;;;5.47;1.30;;;;;;;5.94;100.00;101661.56;5221837;28;20029;-78
2022/10/09 02:11:53;;;;;;;2.63;0.88;;;;;;;5.93;100.00;101661.59;5222788;28;20078;-78
2022/10/09 02:14:23;;;;;;;3.95;1.20;;;;;;;6.06;100.00;101660.72;5220503;28;20108;-78
2022/10/09 02:17:17;;;;;;;5.47;1.30;;;;;;;5.87;100.00;101666.75;5222096;28;20385;-79
2022/10/09 02:19:55;;;;;;;4.95;1.25;;;;;;;5.76;100.00;101661.53;5222270;28;20031;-78
2022/10/09 02:22:30;;;;;;;3.47;1.00;;;;;;;5.60;100.00;101669.28;5220433;28;20039;-77
2022/10/09 02:25:04;;;;;;;4.72;1.13;;;;;;;5.50;100.00;101663.22;5220758;28;20029;-78
2022/10/09 02:27:35;;;;;;;5.18;1.20;;;;;;;5.40;100.00;101670.97;5221147;28;20063;-78
2022/10/09 02:30:08;;;;;;;2.80;1.30;;;;;;;5.54;100.00;101671.88;5222347;28;20049;-78
2022/10/09 02:32:38;;;;;;;3.45;1.10;;;;;;;5.70;100.00;101674.50;5222994;28;20024;-78
2022/10/09 02:35:08;;;;;;;6.68;1.30;;;;;;;5.66;100.00;101679.66;5222416;28;20041;-78
2022/10/09 02:37:39;;;;;;;5.07;1.17;;;;;;;5.53;100.00;101670.13;5221382;28;20107;-78
2022/10/09 02:40:09;;;;;;;5.32;1.08;;;;;;;5.39;100.00;101677.88;5222044;28;20060;-78
2022/10/09 02:42:40;;;;;;;4.50;0.98;;;;;;;5.38;100.00;101676.13;5223073;28;20020;-78
2022/10/09 02:45:10;;;;;;;4.15;1.10;;;;;;;5.32;100.00;101682.19;5222825;28;20485;-78
2022/10/09 02:47:41;;;;;;;5.05;1.30;;;;;;;5.32;100.00;101677.84;5222548;28;20375;-78
2022/10/09 02:50:11;;;;;;;4.65;1.20;;;;;;;5.34;100.00;101672.69;5216706;28;20044;-78
2022/10/09 02:52:41;;;;;;;4.95;1.10;;;;;;;5.40;100.00;101668.38;5222792;28;20644;-78
2022/10/09 02:55:11;;;;;;;5.47;1.40;;;;;;;5.50;100.00;101658.03;5222978;28;20112;-78
2022/10/09 02:57:42;;;;;;;3.15;1.20;;;;;;;5.50;100.00;101662.34;5222604;28;20033;-78
2022/10/09 03:00:13;;;;;;;6.47;1.30;;;;;;;5.52;100.00;101664.09;5222617;28;20033;-78
2022/10/09 03:02:43;;;;;;;5.45;1.40;;;;;;;5.57;100.00;101661.50;5222379;28;20075;-78
2022/10/09 03:05:13;;;;;;;4.53;1.30;;;;;;;5.48;100.00;101661.47;5222276;28;20032;-78
2022/10/09 03:07:50;;;;;;;6.32;1.30;;;;;;;5.33;100.00;101666.63;5222309;28;20029;-78
2022/10/09 03:10:20;;;;;;;4.82;1.25;;;;;;;5.27;100.00;101670.91;5221724;28;20052;-78
2022/10/09 03:12:50;;;;;;;3.47;1.17;;;;;;;5.21;100.00;101668.31;5222512;28;20025;-77
2022/10/09 03:15:21;;;;;;;7.82;1.27;;;;;;;5.12;100.00;101676.91;5221790;28;20098;-78
2022/10/09 03:17:51;;;;;;;6.05;1.00;;;;;;;5.17;100.00;101664.84;5221860;28;20492;-78
2022/10/09 03:20:21;;;;;;;3.78;0.90;;;;;;;5.03;100.00;101674.31;5209393;28;20033;-78
2022/10/09 03:22:52;;;;;;;3.70;0.90;;;;;;;5.03;100.00;101678.59;5221675;28;20056;-78
2022/10/09 03:25:22;;;;;;;5.40;1.30;;;;;;;4.99;100.00;101680.31;5222059;28;20147;-78
2022/10/09 03:27:53;;;;;;;3.65;1.20;;;;;;;5.02;100.00;101685.53;5221779;28;20039;-77
2022/10/09 03:30:23;;;;;;;9.57;1.30;;;;;;;4.97;100.00;101692.38;5222090;28;20036;-77
2022/10/09 03:32:53;;;;;;;4.18;1.30;;;;;;;4.99;100.00;101680.31;5222289;28;20390;-78
2022/10/09 03:35:23;;;;;;;8.38;1.48;;;;;;;5.06;100.00;101687.25;5221106;28;20060;-78
2022/10/09 03:37:54;;;;;;;7.22;1.70;;;;;;;5.06;100.00;101682.09;5221284;28;20029;-78
2022/10/09 03:40:24;;;;;;;6.18;1.15;;;;;;;5.19;100.00;101678.66;5221444;28;20029;-78
2022/10/09 03:42:54;;;;;;;4.40;1.20;;;;;;;5.12;100.00;101683.84;5221703;28;20390;-78
2022/10/09 03:45:24;;;;;;;6.93;1.40;;;;;;;5.15;100.00;101687.28;5221376;28;20035;-78
2022/10/09 03:47:55;;;;;;;5.68;1.30;;;;;;;5.19;100.00;101689.03;5220822;28;20029;-78
2022/10/09 03:50:25;;;;;;;6.03;1.27;;;;;;;5.14;100.00;101688.16;5221157;28;20056;-78
2022/10/09 03:52:56;;;;;;;4.38;1.20;;;;;;;5.24;100.00;101689.94;5221615;28;20020;-78
2022/10/09 03:55:26;;;;;;;5.00;1.38;;;;;;;5.43;100.00;101689.13;5221720;28;20040;-77
2022/10/09 03:57:57;;;;;;;5.40;1.25;;;;;;;5.33;100.00;101697.72;5211406;28;20429;-77
2022/10/09 04:00:27;;;;;;;8.02;1.50;;;;;;;5.30;100.00;101695.13;5220668;28;20179;-78
2022/10/09 04:02:58;;;;;;;5.82;1.20;;;;;;;5.28;100.00;101699.44;5221210;28;20056;-77
2022/10/09 04:05:31;;;;;;;4.47;1.10;;;;;;;5.31;100.00;101699.44;5221037;28;20028;-78
2022/10/09 04:08:01;;;;;;;4.55;1.17;;;;;;;5.43;100.00;101709.88;5221027;28;20033;-78
2022/10/09 04:10:32;;;;;;;3.85;1.33;;;;;;;5.38;100.00;101711.59;5220874;28;20378;-78
2022/10/09 04:13:02;;;;;;;3.72;1.02;;;;;;;5.33;100.00;101710.69;5221174;28;20036;-78
2022/10/09 04:15:34;;;;;;;5.60;1.30;;;;;;;5.38;100.00;101716.75;5221437;28;20037;-78
2022/10/09 04:18:04;;;;;;;5.35;1.30;;;;;;;5.41;100.00;101716.78;5220474;28;20386;-78
2022/10/09 04:20:35;;;;;;;7.88;1.15;;;;;;;5.42;100.00;101721.09;5207108;28;20036;-78
2022/10/09 04:23:05;;;;;;;3.53;1.05;;;;;;;5.06;100.00;101718.34;5220678;28;20044;-78
2022/10/09 04:25:35;;;;;;;4.25;1.00;;;;;;;5.06;100.00;101718.34;5220960;28;20082;-78
2022/10/09 04:28:05;;;;;;;5.55;1.60;;;;;;;5.03;100.00;101723.53;5220173;28;20028;-78
2022/10/09 04:30:36;;;;;;;3.33;1.27;;;;;;;5.02;100.00;101723.50;5220820;28;20493;-77
2022/10/09 04:33:06;;;;;;;7.00;1.58;;;;;;;5.06;100.00;101723.53;5221168;28;20070;-78
2022/10/09 04:35:41;;;;;;;3.83;1.10;;;;;;;5.10;100.00;101724.38;5220696;28;20029;-78
2022/10/09 04:38:11;;;;;;;6.65;1.30;;;;;;;5.02;100.00;101724.38;5220320;28;20470;-78
2022/10/09 04:40:41;;;;;;;3.42;1.00;;;;;;;5.18;100.00;101725.31;5220843;28;20040;-78
2022/10/09 04:43:12;;;;;;;5.57;1.38;;;;;;;5.01;100.00;101721.78;5220945;28;20021;-78
2022/10/09 04:45:42;;;;;;;5.47;1.20;;;;;;;5.19;100.00;101722.69;5220997;28;20029;-78
2022/10/09 04:48:12;;;;;;;6.30;1.55;;;;;;;5.04;100.00;101725.25;5219326;28;20078;-78
2022/10/09 04:50:42;;;;;;;2.95;1.30;;;;;;;4.86;100.00;101713.91;5207957;28;20090;-78
2022/10/09 04:53:13;;;;;;;5.88;1.40;;;;;;;4.91;100.00;101715.69;5220695;28;20601;-78
2022/10/09 04:55:44;;;;;;;5.45;1.40;;;;;;;4.93;100.00;101716.53;5220469;28;20029;-78
2022/10/09 04:58:15;;;;;;;4.38;1.27;;;;;;;4.93;100.00;101716.53;5219551;28;20032;-78
2022/10/09 05:00:45;;;;;;;5.07;1.42;;;;;;;4.82;100.00;101725.97;5220309;28;20068;-77
2022/10/09 05:03:15;;;;;;;4.07;1.23;;;;;;;4.83;100.00;101724.25;5210469;28;20279;-78
2022/10/09 05:05:46;;;;;;;5.47;1.42;;;;;;;4.91;100.00;101715.69;5220111;28;20157;-77
2022/10/09 05:08:16;;;;;;;6.18;1.30;;;;;;;4.89;100.00;101716.50;5224832;28;20053;-77
2022/10/09 05:10:46;;;;;;;5.55;1.55;;;;;;;4.91;100.00;101723.44;5221056;28;20024;-78
2022/10/09 05:13:17;;;;;;;4.53;1.40;;;;;;;4.99;100.00;101719.16;5220056;28;20557;-78
2022/10/09 05:15:47;;;;;;;7.38;1.40;;;;;;;4.95;100.00;101727.78;5220730;28;20025;-78
2022/10/09 05:18:17;;;;;;;3.47;1.25;;;;;;;4.76;100.00;101728.53;5219410;28;20032;-77
2022/10/09 05:20:48;;;;;;;3.47;1.20;;;;;;;4.82;100.00;101728.56;5219823;28;20161;-77
2022/10/09 05:23:18;;;;;;;5.72;1.60;;;;;;;4.86;100.00;101730.34;5219973;28;20550;-77
2022/10/09 05:25:56;;;;;;;4.60;1.48;;;;;;;4.75;100.00;101736.28;5220338;28;20025;-78
2022/10/09 05:28:26;;;;;;;3.45;1.27;;;;;;;4.76;100.00;101738.88;5219512;28;20040;-78
2022/10/09 05:30:57;;;;;;;4.13;1.20;;;;;;;4.85;100.00;101736.38;5220484;28;20371;-78
2022/10/09 05:33:28;;;;;;;5.03;1.15;;;;;;;4.80;100.00;101739.78;5220215;28;20548;-78
2022/10/09 05:36:00;;;;;;;4.28;1.17;;;;;;;4.88;100.00;101738.97;5219462;28;20085;-78
2022/10/09 05:38:31;;;;;;;5.70;1.35;;;;;;;4.83;100.00;101743.22;5219619;28;20054;-78
2022/10/09 05:41:08;;;;;;;5.88;1.50;;;;;;;4.84;100.00;101741.53;5224333;28;20120;-77
2022/10/09 05:43:42;;;;;;;4.22;1.33;;;;;;;4.84;100.00;101742.38;5223521;28;20371;-78
2022/10/09 05:46:14;;;;;;;3.22;1.27;;;;;;;4.94;100.00;101744.19;5205090;28;20483;-78
2022/10/09 05:48:50;;;;;;;6.72;1.30;;;;;;;4.87;100.00;101741.53;5223720;28;20033;-78
2022/10/09 05:51:29;;;;;;;8.38;1.50;;;;;;;4.96;100.00;101737.28;5224003;28;20490;-78
2022/10/09 05:54:03;;;;;;;5.93;1.60;;;;;;;4.93;100.00;101732.09;5230908;28;20143;-78
2022/10/09 05:56:36;;;;;;;5.72;1.40;;;;;;;5.04;100.00;101733.03;5223112;28;20029;-77
2022/10/09 05:59:18;;;;;;;13.55;1.98;;;;;;;5.17;100.00;101729.59;5230193;28;20032;-78
2022/10/09 06:01:50;;;;;;;6.47;1.77;;;;;;;5.12;100.00;101736.50;5220965;28;20039;-78
2022/10/09 06:04:23;;;;;;;7.30;2.17;;;;;;;5.11;100.00;101734.78;5223935;28;20053;-77
2022/10/09 06:06:53;;;;;;;7.85;2.42;;;;;;;5.10;100.00;101735.63;5222951;28;20021;-78
2022/10/09 06:09:24;;;;;;;6.47;1.80;;;;;;;5.15;100.00;101733.91;5223367;28;20131;-78
2022/10/09 06:11:54;;;;;;;7.70;1.67;;;;;;;5.21;100.00;101728.78;5214188;28;20087;-78
2022/10/09 06:14:25;;;;;;;5.70;2.05;;;;;;;5.14;100.00;101742.56;5223289;28;20482;-78
2022/10/09 06:16:57;;;;;;;4.55;1.60;;;;;;;5.22;100.00;101738.28;5221488;28;20062;-78
2022/10/09 06:19:28;;;;;;;8.38;1.90;;;;;;;5.23;100.00;101734.84;5222742;28;20036;-78
2022/10/09 06:21:58;;;;;;;7.38;1.80;;;;;;;5.45;100.00;101744.44;5213754;28;20228;-78
2022/10/09 06:24:28;;;;;;;7.55;1.90;;;;;;;5.28;100.00;101746.09;5223814;28;20029;-78
2022/10/09 06:26:59;;;;;;;7.82;2.15;;;;;;;5.37;100.00;101740.06;5223666;28;20107;-78
2022/10/09 06:29:29;;;;;;;7.15;1.67;;;;;;;5.38;100.00;101747.00;5223745;28;20024;-78
2022/10/09 06:31:59;;;;;;;9.85;1.90;;;;;;;5.45;100.00;101747.03;5223243;28;20025;-78
2022/10/09 06:34:30;;;;;;;6.47;1.95;;;;;;;5.52;100.00;101736.69;5223226;28;20090;-78
2022/10/09 06:37:00;;;;;;;6.78;1.92;;;;;;;5.71;100.00;101737.63;5223103;28;20068;-78
2022/10/09 06:39:30;;;;;;;4.32;1.60;;;;;;;5.81;100.00;101739.38;5223030;28;20033;-77
2022/10/09 06:42:02;;;;;;;8.48;1.90;;;;;;;5.94;100.00;101739.41;5223377;28;20103;-78
2022/10/09 06:44:33;;;;;;;7.72;2.15;;;;;;;5.95;100.00;101741.13;5213750;28;20539;-78
2022/10/09 06:47:03;;;;;;;10.65;1.92;;;;;;;6.10;100.00;101748.09;5222571;28;20032;-78
2022/10/09 06:49:33;;;;;;;8.35;1.95;;;;;;;6.20;100.00;101755.88;5232876;22;20048;-73
2022/10/09 06:52:04;;;;;;;4.55;1.85;;;;;;;6.49;100.00;101742.91;5205902;28;20387;-72
2022/10/09 06:54:34;;;;;;;10.82;2.60;;;;;;;6.58;100.00;101755.91;5202066;28;20451;-72
2022/10/09 06:57:04;;;;;;;8.40;1.98;;;;;;;6.77;100.00;101749.81;5201321;28;20025;-72
2022/10/09 06:59:35;;;;;;;7.00;2.35;;;;;;;6.87;100.00;101757.59;5199995;28;20025;-72
2022/10/09 07:02:05;;;;;;;9.77;1.95;;;;;;;7.18;100.00;101756.66;5201805;28;20053;-72
2022/10/09 07:04:35;;;;;;;7.65;2.60;;;;;;;7.34;100.00;101761.78;5204095;28;20060;-73
2022/10/09 07:07:05;;;;;;;5.20;2.22;;;;;;;7.38;100.00;101763.50;5206019;28;20029;-72
2022/10/09 07:09:36;;;;;;;6.22;2.10;;;;;;;7.47;100.00;101763.47;5201260;28;20075;-73
2022/10/09 07:12:06;;;;;;;6.00;2.10;;;;;;;7.95;100.00;101763.22;5201597;28;20079;-72
2022/10/09 07:14:36;;;;;;;5.43;1.90;;;;;;;8.67;100.00;101762.72;5201671;28;20029;-73
2022/10/09 07:17:07;;;;;;;5.40;2.03;;;;;;;8.93;100.00;101767.69;5199636;28;20479;-73
2022/10/09 07:19:37;;;;;;;9.85;2.00;;;;;;;9.71;100.00;101759.81;5195971;28;20033;-73
2022/10/09 07:22:10;;;;;;;6.07;1.70;;;;;;;11.17;99.83;101756.56;5198025;28;20032;-73
2022/10/09 07:24:40;;;;;;;6.50;1.67;;;;;;;12.64;89.79;101751.50;5200007;28;20033;-73
2022/10/09 07:27:10;;;;;;;7.50;1.85;;;;;;;13.59;84.26;101744.53;5199139;28;20033;-74
2022/10/09 07:29:41;;;;;;;6.35;1.50;;;;;;;15.26;79.68;101738.09;5198647;28;20500;-73
2022/10/09 07:32:11;;;;;;;6.15;1.90;;;;;;;15.42;74.00;101740.19;5199356;28;20147;-73
2022/10/09 07:34:42;;;;;;;4.72;1.40;;;;;;;15.31;75.76;101739.69;5201166;28;20082;-74
2022/10/09 07:37:12;;;;;;;7.28;1.75;;;;;;;16.39;74.17;101732.81;5201277;28;20475;-74
2022/10/09 07:39:42;;;;;;;5.20;1.40;;;;;;;16.52;73.14;101736.69;5199515;28;20476;-73
2022/10/09 07:42:12;;;;;;;4.28;1.40;;;;;;;16.52;69.69;101747.25;5198581;28;20033;-73
2022/10/09 07:44:43;;;;;;;7.90;1.60;;;;;;;16.63;73.82;101742.38;5200306;28;20025;-73
2022/10/09 07:47:13;;;;;;;7.72;1.48;;;;;;;16.89;73.83;101747.41;5198945;28;20104;-73
2022/10/09 07:49:43;;;;;;;5.78;1.25;;;;;;;17.49;71.96;101739.47;5199071;28;20025;-73
2022/10/09 07:52:14;;;;;;;5.03;1.63;;;;;;;17.18;70.73;101741.72;5199062;28;20450;-73
2022/10/09 07:54:44;;;;;;;3.73;1.23;;;;;;;18.40;70.89;101739.53;5199627;28;20033;-73
2022/10/09 07:57:14;;;;;;;6.07;1.47;;;;;;;18.68;68.32;101751.31;5195084;28;20318;-73
2022/10/09 07:59:44;;;;;;;6.68;1.58;;;;;;;18.46;67.31;101744.50;5197308;28;20665;-75
2022/10/09 08:02:15;;;;;;;5.82;1.45;;;;;;;17.58;69.33;101745.19;5194993;28;20041;-75
2022/10/09 08:04:45;;;;;;;7.50;1.30;;;;;;;18.23;70.83;101750.03;5196965;28;20059;-74
2022/10/09 08:07:15;;;;;;;4.95;1.30;;;;;;;18.53;69.05;101743.28;5198032;28;20284;-76
2022/10/09 08:09:45;;;;;;;4.15;1.58;;;;;;;18.25;70.67;101741.09;5197721;28;20032;-75
2022/10/09 08:12:16;;;;;;;9.43;1.52;;;;;;;18.36;71.38;101738.81;5196786;28;20041;-75
2022/10/09 08:14:47;;;;;;;7.10;1.52;;;;;;;18.83;69.94;101738.16;5198384;28;20052;-75
2022/10/09 08:17:19;;;;;;;5.63;1.58;;;;;;;19.29;66.61;101740.16;5197296;28;20045;-73
2022/10/09 08:19:49;;;;;;;5.25;1.27;;;;;;;19.63;66.60;101745.38;5197662;28;20053;-73
2022/10/09 08:22:19;;;;;;;7.28;1.35;;;;;;;19.32;66.36;101740.03;5194847;28;20079;-73
2022/10/09 08:24:50;;;;;;;4.20;1.20;;;;;;;18.73;71.38;101743.16;5196425;28;20021;-73
2022/10/09 08:27:20;;;;;;;7.97;1.70;;;;;;;18.75;67.67;101742.97;5196463;28;20036;-73
2022/10/09 08:29:50;;;;;;;6.10;1.43;;;;;;;19.40;67.86;101744.91;5199004;28;20284;-74
2022/10/09 08:32:21;;;;;;;5.13;0.95;;;;;;;19.66;66.51;101739.06;5198874;28;20305;-74
2022/10/09 08:34:51;;;;;;;6.88;1.55;;;;;;;19.80;65.96;101747.97;5198122;28;20032;-73
2022/10/09 08:37:22;;;;;;;5.38;1.42;;;;;;;20.12;63.31;101744.44;5196482;28;20120;-74
2022/10/09 08:39:52;;;;;;;8.52;1.55;;;;;;;19.80;66.78;101747.13;5198187;28;20102;-74
2022/10/09 08:42:37;;;;;;;9.32;1.45;;;;;;;18.60;68.67;101750.84;5195913;28;20037;-74
2022/10/09 08:45:27;;;;;;;3.88;1.00;;;;;;;18.32;73.23;101747.00;5198900;28;20457;-74
2022/10/09 08:48:03;;;;;;;10.63;1.88;;;;;;;18.76;69.21;101739.41;5193290;28;20544;-73
2022/10/09 08:50:39;;;;;;;6.18;1.70;;;;;;;18.93;68.03;101743.84;5192202;28;20167;-74
2022/10/09 08:53:32;;;;;;;6.65;1.30;;;;;;;17.97;70.85;101739.88;5196356;28;20040;-73
2022/10/09 08:56:04;;;;;;;6.95;1.75;;;;;;;16.44;75.90;101746.72;5196633;28;20034;-74
2022/10/09 08:58:38;;;;;;;7.72;1.48;;;;;;;16.31;76.14;101749.84;5198074;28;20132;-73
2022/10/09 09:01:28;;;;;;;10.57;1.55;;;;;;;16.02;79.04;101743.09;5180051;28;20072;-74
2022/10/09 09:04:13;;;;;;;4.90;1.20;;;;;;;16.07;79.62;101741.13;5196451;28;20057;-73
2022/10/09 09:07:04;;;;;;;5.80;1.50;;;;;;;15.98;81.08;101751.19;5203046;28;20022;-74
2022/10/09 09:09:46;;;;;;;8.82;1.83;;;;;;;15.47;81.62;101739.97;5198377;28;20065;-74
2022/10/09 09:12:40;;;;;;;9.52;1.35;;;;;;;15.38;83.32;101733.28;5193854;28;20028;-74
2022/10/09 09:15:33;;;;;;;4.38;1.15;;;;;;;15.27;84.01;101738.06;5201639;28;20043;-74
2022/10/09 09:18:15;;;;;;;4.40;1.08;;;;;;;15.54;82.43;101736.22;5201070;28;20095;-73
2022/10/09 09:21:03;;;;;;;9.00;1.42;;;;;;;15.25;84.16;101733.75;5198439;28;20072;-73
2022/10/09 09:23:39;;;;;;;5.95;1.48;;;;;;;15.42;86.61;101732.28;5201227;28;20522;-74
2022/10/09 09:26:15;;;;;;;10.55;1.52;;;;;;;15.37;86.01;101733.34;5202077;28;20037;-74
2022/10/09 09:28:51;;;;;;;8.23;1.40;;;;;;;15.22;84.42;101726.81;5179881;28;20027;-74
2022/10/09 09:31:29;;;;;;;9.02;1.90;;;;;;;15.21;84.23;101730.34;5201281;28;20029;-74
2022/10/09 09:34:25;;;;;;;7.65;1.60;;;;;;;15.43;82.72;101726.09;5202106;28;20025;-74
2022/10/09 09:36:56;;;;;;;;;;;;;;;15.35;84.77;101725.47;5203269;28;20028;-73
2022/10/09 09:39:30;;;;;;;15.80;1.50;;;;;;;15.39;84.33;101723.59;5204328;28;19959;-75
2022/10/09 09:42:11;;;;;;;6.90;1.52;;;;;;;15.38;83.24;101722.72;5205838;28;20032;-73
2022/10/09 09:44:48;;;;;;;9.10;1.50;;;;;;;15.42;84.32;101718.22;5203629;28;20025;-74
2022/10/09 09:47:25;;;;;;;11.27;1.23;;;;;;;15.37;83.60;101715.75;5201082;28;20438;-73
2022/10/09 09:50:01;;;;;;;8.88;1.40;;;;;;;15.37;85.19;101714.91;5201297;28;20025;-74
2022/10/09 09:52:38;;;;;;;5.20;0.93;;;;;;;15.45;84.09;101705.81;5202848;28;20545;-73
2022/10/09 09:55:24;;;;;;;7.45;1.40;;;;;;;15.22;83.55;101708.38;5202285;28;20044;-75
2022/10/09 09:58:06;;;;;;;8.73;1.38;;;;;;;15.45;84.37;101702.28;5193909;28;20033;-74
2022/10/09 10:00:37;;;;;;;4.90;0.95;;;;;;;15.60;84.32;101702.59;5201039;28;20069;-73
2022/10/09 10:03:15;;;;;;;6.40;1.20;;;;;;;15.38;83.18;101698.19;5202246;28;20095;-73
2022/10/09 10:05:46;;;;;;;10.85;1.20;;;;;;;15.62;83.50;101700.75;5201812;28;20021;-74
2022/10/09 10:08:22;;;;;;;7.35;1.25;;;;;;;15.30;80.53;101698.47;5201828;28;20032;-74
2022/10/09 10:10:56;;;;;;;11.98;1.35;;;;;;;15.47;81.90;101692.56;5202267;28;20483;-73
2022/10/09 10:13:34;;;;;;;9.35;1.20;;;;;;;15.40;82.40;101694.56;5191239;28;20044;-74
2022/10/09 10:16:07;;;;;;;7.55;1.23;;;;;;;15.44;82.23;101690.91;5203184;28;20029;-73
2022/10/09 10:18:40;;;;;;;7.22;1.17;;;;;;;15.51;81.92;101681.84;5201803;28;20025;-75
2022/10/09 10:21:13;;;;;;;8.00;1.20;;;;;;;15.23;80.63;101683.78;5183225;28;20033;-72
2022/10/09 10:23:58;;;;;;;6.43;1.30;;;;;;;15.17;82.06;101683.97;5198441;28;20238;-75
2022/10/09 10:26:54;;;;;;;4.43;1.02;;;;;;;15.38;81.85;101680.59;5200459;28;20266;-75
2022/10/09 10:29:34;;;;;;;8.20;1.30;;;;;;;15.14;81.59;101676.19;5201052;28;20041;-74
2022/10/09 10:32:24;;;;;;;8.77;1.20;;;;;;;15.28;80.32;101668.66;5200529;28;20033;-74
2022/10/09 10:35:04;;;;;;;6.00;1.20;;;;;;;15.30;79.18;101666.84;5201427;28;20033;-75
2022/10/09 10:37:43;;;;;;;8.25;1.30;;;;;;;15.11;79.06;101668.41;5201980;28;20072;-74
2022/10/09 10:40:23;;;;;;;6.88;0.95;;;;;;;15.00;80.30;101667.09;5200043;28;20562;-74
2022/10/09 10:43:21;;;;;;;6.22;1.08;;;;;;;15.13;77.77;101661.31;5200371;28;20071;-74
2022/10/09 10:45:54;;;;;;;4.55;1.00;;;;;;;15.12;76.55;101656.09;5198365;28;20045;-74
2022/10/09 10:48:29;;;;;;;9.10;1.00;;;;;;;15.23;78.13;101656.56;5198898;28;20064;-75
2022/10/09 10:51:02;;;;;;;4.38;0.98;;;;;;;15.25;78.23;101652.97;5201586;28;20060;-74
2022/10/09 10:53:46;;;;;;;5.10;1.08;;;;;;;15.32;78.09;101637.84;5200427;28;20033;-74
2022/10/09 10:56:30;;;;;;;5.57;1.10;;;;;;;15.32;78.51;101641.31;5198618;28;20021;-73
2022/10/09 10:59:14;;;;;;;5.57;0.80;;;;;;;15.11;77.59;101644.72;5198969;28;20029;-75
2022/10/09 11:02:22;;;;;;;8.63;1.25;;;;;;;15.13;79.18;101627.09;5201145;28;20549;-74
2022/10/09 11:05:14;;;;;;;4.00;0.90;;;;;;;15.13;76.60;101631.47;5199617;28;20018;-75
2022/10/09 11:07:56;;;;;;;8.57;1.13;;;;;;;15.28;79.18;101625.63;5201152;28;20112;-75
2022/10/09 11:11:20;;;;;;;7.95;1.00;;;;;;;15.52;77.25;101624.75;5200268;28;20364;-74
2022/10/09 11:14:03;;;;;;;9.65;0.93;;;;;;;15.57;77.91;101623.63;5107142;29;20031;-74
2022/10/09 11:16:56;;;;;;;4.40;0.90;;;;;;;15.39;77.70;101620.84;5190407;28;20043;-74
2022/10/09 11:19:54;;;;;;;6.00;1.00;;;;;;;15.32;75.94;101620.22;5200077;28;20540;-74
2022/10/09 11:22:36;;;;;;;5.93;1.00;;;;;;;15.56;77.87;101616.63;5201720;28;20037;-73
2022/10/09 11:25:22;;;;;;;4.43;0.88;;;;;;;15.52;77.41;101608.94;5203999;28;20430;-74
2022/10/09 11:28:10;;;;;;;6.32;0.77;;;;;;;15.49;75.46;101609.03;5201310;28;20044;-73
2022/10/09 11:30:58;;;;;;;7.43;0.95;;;;;;;15.57;75.03;101610.44;5201031;28;20580;-74
2022/10/09 11:33:42;;;;;;;5.30;1.20;;;;;;;15.42;75.39;101608.44;5200561;28;20033;-74
2022/10/09 11:36:25;;;;;;;8.88;1.48;;;;;;;15.61;77.32;101603.28;5204989;28;20542;-74
2022/10/09 11:39:01;;;;;;;6.45;0.93;;;;;;;15.53;75.71;101597.47;5200281;28;20025;-74
2022/10/09 11:41:34;;;;;;;4.60;0.90;;;;;;;15.68;75.62;101592.44;5200624;28;20436;-73
2022/10/09 11:44:22;;;;;;;6.57;1.00;;;;;;;15.46;74.33;101588.94;5199819;28;20207;-73
2022/10/09 11:47:17;;;;;;;5.68;0.73;;;;;;;15.33;75.40;101582.44;5199297;28;20127;-74
2022/10/09 11:50:15;;;;;;;6.22;1.20;;;;;;;15.66;76.09;101582.88;5181027;28;20049;-73
2022/10/09 11:53:20;;;;;;;8.02;1.13;;;;;;;15.55;73.31;101571.91;5199137;28;20418;-75
2022/10/09 11:56:02;;;;;;;7.45;1.15;;;;;;;15.59;74.13;101570.88;5172657;28;20064;-75
2022/10/09 11:58:33;;;;;;;7.70;1.25;;;;;;;15.55;71.21;101564.84;5199474;28;20080;-74
2022/10/09 12:01:20;;;;;;;3.40;0.80;;;;;;;15.63;73.44;101549.59;5198021;28;20438;-74